sensor_id;sensor_type;location;lat;lon;timestamp;P1;durP1;ratioP1;P2;durP2;ratioP2
32393;SDS011;18853;45.426;9.206;2024-02-15T00:00:11;32.72;;;23.60;;
32393;SDS011;18853;45.426;9.206;2024-02-15T00:02:37;35.50;;;23.77;;
32393;SDS011;18853;45.426;9.206;2024-02-15T00:05:03;34.13;;;23.83;;
32393;SDS011;18853;45.426;9.206;2024-02-15T00:07:29;34.95;;;23.48;;
32393;SDS011;18853;45.426;9.206;2024-02-15T00:09:55;37.85;;;24.08;;
32393;SDS011;18853;45.426;9.206;2024-02-15T00:12:23;36.55;;;25.08;;
32393;SDS011;18853;45.426;9.206;2024-02-15T00:14:49;38.47;;;24.73;;
32393;SDS011;18853;45.426;9.206;2024-02-15T00:17:15;34.78;;;25.38;;
32393;SDS011;18853;45.426;9.206;2024-02-15T00:19:40;37.88;;;26.58;;
32393;SDS011;18853;45.426;9.206;2024-02-15T00:22:06;38.70;;;26.23;;
32393;SDS011;18853;45.426;9.206;2024-02-15T00:24:32;35.85;;;25.60;;
32393;SDS011;18853;45.426;9.206;2024-02-15T00:26:58;35.53;;;25.17;;
32393;SDS011;18853;45.426;9.206;2024-02-15T00:29:23;36.22;;;26.08;;
32393;SDS011;18853;45.426;9.206;2024-02-15T00:31:49;37.50;;;26.35;;
32393;SDS011;18853;45.426;9.206;2024-02-15T00:34:15;39.13;;;25.33;;
32393;SDS011;18853;45.426;9.206;2024-02-15T00:36:44;35.08;;;25.90;;
32393;SDS011;18853;45.426;9.206;2024-02-15T00:39:10;37.10;;;26.48;;
32393;SDS011;18853;45.426;9.206;2024-02-15T00:41:36;39.63;;;27.65;;
32393;SDS011;18853;45.426;9.206;2024-02-15T00:44:06;40.85;;;28.10;;
32393;SDS011;18853;45.426;9.206;2024-02-15T00:46:33;37.55;;;27.27;;
32393;SDS011;18853;45.426;9.206;2024-02-15T00:48:59;38.97;;;26.25;;
32393;SDS011;18853;45.426;9.206;2024-02-15T00:51:24;36.60;;;26.00;;
32393;SDS011;18853;45.426;9.206;2024-02-15T00:53:50;38.88;;;26.00;;
32393;SDS011;18853;45.426;9.206;2024-02-15T00:56:15;38.85;;;27.00;;
32393;SDS011;18853;45.426;9.206;2024-02-15T00:58:42;38.40;;;26.50;;
32393;SDS011;18853;45.426;9.206;2024-02-15T01:01:08;37.20;;;25.88;;
32393;SDS011;18853;45.426;9.206;2024-02-15T01:03:35;37.65;;;25.13;;
32393;SDS011;18853;45.426;9.206;2024-02-15T01:06:01;36.70;;;26.70;;
32393;SDS011;18853;45.426;9.206;2024-02-15T01:08:27;40.60;;;27.92;;
32393;SDS011;18853;45.426;9.206;2024-02-15T01:10:53;42.47;;;25.92;;
32393;SDS011;18853;45.426;9.206;2024-02-15T01:13:19;38.53;;;27.40;;
32393;SDS011;18853;45.426;9.206;2024-02-15T01:15:44;44.70;;;28.52;;
32393;SDS011;18853;45.426;9.206;2024-02-15T01:18:11;39.90;;;28.60;;
32393;SDS011;18853;45.426;9.206;2024-02-15T01:20:36;44.00;;;27.95;;
32393;SDS011;18853;45.426;9.206;2024-02-15T01:23:02;40.38;;;27.67;;
32393;SDS011;18853;45.426;9.206;2024-02-15T01:25:30;42.17;;;29.52;;
32393;SDS011;18853;45.426;9.206;2024-02-15T01:27:58;45.03;;;30.00;;
32393;SDS011;18853;45.426;9.206;2024-02-15T01:30:23;44.05;;;30.00;;
32393;SDS011;18853;45.426;9.206;2024-02-15T01:32:49;46.90;;;29.45;;
32393;SDS011;18853;45.426;9.206;2024-02-15T01:35:14;42.45;;;29.25;;
32393;SDS011;18853;45.426;9.206;2024-02-15T01:37:40;47.00;;;29.73;;
32393;SDS011;18853;45.426;9.206;2024-02-15T01:40:06;43.00;;;30.05;;
32393;SDS011;18853;45.426;9.206;2024-02-15T01:42:32;44.17;;;30.23;;
32393;SDS011;18853;45.426;9.206;2024-02-15T01:44:57;47.28;;;30.23;;
32393;SDS011;18853;45.426;9.206;2024-02-15T01:47:23;42.47;;;30.60;;
32393;SDS011;18853;45.426;9.206;2024-02-15T01:49:49;43.83;;;29.67;;
32393;SDS011;18853;45.426;9.206;2024-02-15T01:52:15;47.60;;;31.77;;
32393;SDS011;18853;45.426;9.206;2024-02-15T01:54:42;42.10;;;29.63;;
32393;SDS011;18853;45.426;9.206;2024-02-15T01:57:08;41.80;;;29.67;;
32393;SDS011;18853;45.426;9.206;2024-02-15T01:59:33;44.67;;;30.75;;
32393;SDS011;18853;45.426;9.206;2024-02-15T02:01:59;42.20;;;29.30;;
32393;SDS011;18853;45.426;9.206;2024-02-15T02:04:26;44.72;;;30.95;;
32393;SDS011;18853;45.426;9.206;2024-02-15T02:06:51;42.13;;;29.23;;
32393;SDS011;18853;45.426;9.206;2024-02-15T02:09:21;43.40;;;30.90;;
32393;SDS011;18853;45.426;9.206;2024-02-15T02:11:47;47.78;;;30.60;;
32393;SDS011;18853;45.426;9.206;2024-02-15T02:14:13;47.40;;;31.42;;
32393;SDS011;18853;45.426;9.206;2024-02-15T02:16:38;47.13;;;31.48;;
32393;SDS011;18853;45.426;9.206;2024-02-15T02:19:04;45.70;;;31.10;;
32393;SDS011;18853;45.426;9.206;2024-02-15T02:21:34;47.15;;;31.52;;
32393;SDS011;18853;45.426;9.206;2024-02-15T02:24:02;47.35;;;31.25;;
32393;SDS011;18853;45.426;9.206;2024-02-15T02:26:33;46.13;;;31.15;;
32393;SDS011;18853;45.426;9.206;2024-02-15T02:28:59;45.80;;;31.38;;
32393;SDS011;18853;45.426;9.206;2024-02-15T02:31:28;47.63;;;31.88;;
32393;SDS011;18853;45.426;9.206;2024-02-15T02:33:54;49.65;;;31.48;;
32393;SDS011;18853;45.426;9.206;2024-02-15T02:36:20;43.83;;;30.60;;
32393;SDS011;18853;45.426;9.206;2024-02-15T02:38:46;43.35;;;31.33;;
32393;SDS011;18853;45.426;9.206;2024-02-15T02:41:14;43.97;;;31.27;;
32393;SDS011;18853;45.426;9.206;2024-02-15T02:43:40;44.35;;;30.00;;
32393;SDS011;18853;45.426;9.206;2024-02-15T02:46:06;44.67;;;31.13;;
32393;SDS011;18853;45.426;9.206;2024-02-15T02:48:35;42.53;;;28.35;;
32393;SDS011;18853;45.426;9.206;2024-02-15T02:51:01;42.30;;;29.33;;
32393;SDS011;18853;45.426;9.206;2024-02-15T02:53:27;43.03;;;27.58;;
32393;SDS011;18853;45.426;9.206;2024-02-15T02:55:53;44.17;;;27.60;;
32393;SDS011;18853;45.426;9.206;2024-02-15T02:58:21;38.65;;;27.38;;
32393;SDS011;18853;45.426;9.206;2024-02-15T03:00:47;39.28;;;27.33;;
32393;SDS011;18853;45.426;9.206;2024-02-15T03:03:14;39.80;;;28.58;;
32393;SDS011;18853;45.426;9.206;2024-02-15T03:05:40;41.35;;;28.85;;
32393;SDS011;18853;45.426;9.206;2024-02-15T03:08:06;44.13;;;29.77;;
32393;SDS011;18853;45.426;9.206;2024-02-15T03:10:37;41.45;;;28.33;;
32393;SDS011;18853;45.426;9.206;2024-02-15T03:13:03;42.28;;;29.70;;
32393;SDS011;18853;45.426;9.206;2024-02-15T03:15:30;41.40;;;28.50;;
32393;SDS011;18853;45.426;9.206;2024-02-15T03:17:57;43.25;;;29.85;;
32393;SDS011;18853;45.426;9.206;2024-02-15T03:20:23;42.13;;;28.83;;
32393;SDS011;18853;45.426;9.206;2024-02-15T03:22:58;44.53;;;31.08;;
32393;SDS011;18853;45.426;9.206;2024-02-15T03:25:25;42.97;;;29.63;;
32393;SDS011;18853;45.426;9.206;2024-02-15T03:27:55;49.03;;;29.95;;
32393;SDS011;18853;45.426;9.206;2024-02-15T03:30:23;46.78;;;31.85;;
32393;SDS011;18853;45.426;9.206;2024-02-15T03:32:54;47.90;;;30.65;;
32393;SDS011;18853;45.426;9.206;2024-02-15T03:35:21;46.85;;;31.77;;
32393;SDS011;18853;45.426;9.206;2024-02-15T03:37:47;46.47;;;32.25;;
32393;SDS011;18853;45.426;9.206;2024-02-15T03:40:16;45.33;;;31.05;;
32393;SDS011;18853;45.426;9.206;2024-02-15T03:42:46;45.67;;;31.20;;
32393;SDS011;18853;45.426;9.206;2024-02-15T03:45:11;44.15;;;30.42;;
32393;SDS011;18853;45.426;9.206;2024-02-15T03:47:37;48.67;;;31.08;;
32393;SDS011;18853;45.426;9.206;2024-02-15T03:50:03;42.33;;;30.33;;
32393;SDS011;18853;45.426;9.206;2024-02-15T03:52:34;45.53;;;30.10;;
32393;SDS011;18853;45.426;9.206;2024-02-15T03:55:00;48.65;;;31.30;;
32393;SDS011;18853;45.426;9.206;2024-02-15T03:57:27;45.15;;;29.77;;
32393;SDS011;18853;45.426;9.206;2024-02-15T03:59:53;48.63;;;30.98;;
32393;SDS011;18853;45.426;9.206;2024-02-15T04:02:21;41.05;;;29.88;;
32393;SDS011;18853;45.426;9.206;2024-02-15T04:04:48;43.47;;;29.88;;
32393;SDS011;18853;45.426;9.206;2024-02-15T04:07:14;43.10;;;29.92;;
32393;SDS011;18853;45.426;9.206;2024-02-15T04:09:41;45.88;;;30.90;;
32393;SDS011;18853;45.426;9.206;2024-02-15T04:12:07;43.00;;;30.10;;
32393;SDS011;18853;45.426;9.206;2024-02-15T04:14:33;43.92;;;29.85;;
32393;SDS011;18853;45.426;9.206;2024-02-15T04:16:59;45.75;;;30.17;;
32393;SDS011;18853;45.426;9.206;2024-02-15T04:19:26;45.40;;;30.20;;
32393;SDS011;18853;45.426;9.206;2024-02-15T04:21:52;47.20;;;30.45;;
32393;SDS011;18853;45.426;9.206;2024-02-15T04:24:20;39.80;;;29.60;;
32393;SDS011;18853;45.426;9.206;2024-02-15T04:26:46;41.20;;;29.30;;
32393;SDS011;18853;45.426;9.206;2024-02-15T04:29:13;42.15;;;29.63;;
32393;SDS011;18853;45.426;9.206;2024-02-15T04:31:39;44.97;;;30.27;;
32393;SDS011;18853;45.426;9.206;2024-02-15T04:34:05;43.60;;;29.10;;
32393;SDS011;18853;45.426;9.206;2024-02-15T04:36:31;39.80;;;29.00;;
32393;SDS011;18853;45.426;9.206;2024-02-15T04:39:00;60.83;;;31.13;;
32393;SDS011;18853;45.426;9.206;2024-02-15T04:41:29;44.65;;;30.40;;
32393;SDS011;18853;45.426;9.206;2024-02-15T04:43:55;39.35;;;28.65;;
32393;SDS011;18853;45.426;9.206;2024-02-15T04:46:20;40.55;;;28.02;;
32393;SDS011;18853;45.426;9.206;2024-02-15T04:48:47;38.50;;;27.23;;
32393;SDS011;18853;45.426;9.206;2024-02-15T04:51:16;44.38;;;29.00;;
32393;SDS011;18853;45.426;9.206;2024-02-15T04:53:42;41.75;;;28.40;;
32393;SDS011;18853;45.426;9.206;2024-02-15T04:56:13;37.75;;;27.45;;
32393;SDS011;18853;45.426;9.206;2024-02-15T04:58:39;40.83;;;28.10;;
32393;SDS011;18853;45.426;9.206;2024-02-15T05:01:12;35.63;;;25.58;;
32393;SDS011;18853;45.426;9.206;2024-02-15T05:03:38;36.33;;;26.77;;
32393;SDS011;18853;45.426;9.206;2024-02-15T05:06:03;38.38;;;26.73;;
32393;SDS011;18853;45.426;9.206;2024-02-15T05:08:30;39.65;;;27.40;;
32393;SDS011;18853;45.426;9.206;2024-02-15T05:10:56;44.45;;;27.65;;
32393;SDS011;18853;45.426;9.206;2024-02-15T05:13:25;40.05;;;27.20;;
32393;SDS011;18853;45.426;9.206;2024-02-15T05:15:51;41.55;;;27.98;;
32393;SDS011;18853;45.426;9.206;2024-02-15T05:18:16;41.72;;;28.20;;
32393;SDS011;18853;45.426;9.206;2024-02-15T05:20:43;41.42;;;28.38;;
32393;SDS011;18853;45.426;9.206;2024-02-15T05:23:08;40.40;;;28.45;;
32393;SDS011;18853;45.426;9.206;2024-02-15T05:25:34;40.63;;;29.52;;
32393;SDS011;18853;45.426;9.206;2024-02-15T05:28:00;41.63;;;28.67;;
32393;SDS011;18853;45.426;9.206;2024-02-15T05:30:26;40.20;;;29.17;;
32393;SDS011;18853;45.426;9.206;2024-02-15T05:32:52;44.67;;;29.25;;
32393;SDS011;18853;45.426;9.206;2024-02-15T05:35:18;42.53;;;29.80;;
32393;SDS011;18853;45.426;9.206;2024-02-15T05:37:44;47.20;;;30.58;;
32393;SDS011;18853;45.426;9.206;2024-02-15T05:40:10;43.90;;;29.85;;
32393;SDS011;18853;45.426;9.206;2024-02-15T05:42:41;40.53;;;29.90;;
32393;SDS011;18853;45.426;9.206;2024-02-15T05:47:54;44.55;;;29.67;;
32393;SDS011;18853;45.426;9.206;2024-02-15T05:50:20;43.28;;;29.10;;
32393;SDS011;18853;45.426;9.206;2024-02-15T05:52:47;38.67;;;27.27;;
32393;SDS011;18853;45.426;9.206;2024-02-15T05:55:13;42.03;;;28.83;;
32393;SDS011;18853;45.426;9.206;2024-02-15T05:57:42;39.78;;;28.02;;
32393;SDS011;18853;45.426;9.206;2024-02-15T06:00:08;42.33;;;27.23;;
32393;SDS011;18853;45.426;9.206;2024-02-15T06:02:34;38.80;;;28.33;;
32393;SDS011;18853;45.426;9.206;2024-02-15T06:05:00;40.13;;;27.08;;
32393;SDS011;18853;45.426;9.206;2024-02-15T06:07:29;37.45;;;27.58;;
32393;SDS011;18853;45.426;9.206;2024-02-15T06:09:56;38.85;;;26.40;;
32393;SDS011;18853;45.426;9.206;2024-02-15T06:12:29;39.55;;;27.67;;
32393;SDS011;18853;45.426;9.206;2024-02-15T06:14:55;39.85;;;28.25;;
32393;SDS011;18853;45.426;9.206;2024-02-15T06:17:21;38.55;;;28.02;;
32393;SDS011;18853;45.426;9.206;2024-02-15T06:19:46;41.08;;;27.75;;
32393;SDS011;18853;45.426;9.206;2024-02-15T06:22:12;39.47;;;28.17;;
32393;SDS011;18853;45.426;9.206;2024-02-15T06:24:38;39.15;;;28.73;;
32393;SDS011;18853;45.426;9.206;2024-02-15T06:27:04;42.85;;;30.48;;
32393;SDS011;18853;45.426;9.206;2024-02-15T06:29:30;39.58;;;28.58;;
32393;SDS011;18853;45.426;9.206;2024-02-15T06:32:14;43.20;;;29.33;;
32393;SDS011;18853;45.426;9.206;2024-02-15T06:34:58;43.78;;;29.90;;
32393;SDS011;18853;45.426;9.206;2024-02-15T06:37:42;47.03;;;31.02;;
32393;SDS011;18853;45.426;9.206;2024-02-15T06:40:26;44.50;;;29.70;;
32393;SDS011;18853;45.426;9.206;2024-02-15T06:42:53;43.60;;;29.77;;
32393;SDS011;18853;45.426;9.206;2024-02-15T06:45:19;42.00;;;29.13;;
32393;SDS011;18853;45.426;9.206;2024-02-15T06:47:45;41.08;;;29.60;;
32393;SDS011;18853;45.426;9.206;2024-02-15T06:50:11;41.83;;;29.02;;
32393;SDS011;18853;45.426;9.206;2024-02-15T06:52:37;41.35;;;28.70;;
32393;SDS011;18853;45.426;9.206;2024-02-15T06:55:04;37.00;;;27.75;;
32393;SDS011;18853;45.426;9.206;2024-02-15T06:57:33;44.13;;;28.73;;
32393;SDS011;18853;45.426;9.206;2024-02-15T07:00:00;41.75;;;29.67;;
32393;SDS011;18853;45.426;9.206;2024-02-15T07:02:35;48.13;;;31.88;;
32393;SDS011;18853;45.426;9.206;2024-02-15T07:05:01;48.20;;;31.90;;
32393;SDS011;18853;45.426;9.206;2024-02-15T07:07:28;42.53;;;28.70;;
32393;SDS011;18853;45.426;9.206;2024-02-15T07:09:53;42.80;;;28.05;;
32393;SDS011;18853;45.426;9.206;2024-02-15T07:12:19;44.00;;;29.55;;
32393;SDS011;18853;45.426;9.206;2024-02-15T07:14:46;44.75;;;29.85;;
32393;SDS011;18853;45.426;9.206;2024-02-15T07:17:12;44.13;;;29.38;;
32393;SDS011;18853;45.426;9.206;2024-02-15T07:19:41;53.28;;;35.38;;
32393;SDS011;18853;45.426;9.206;2024-02-15T07:22:10;51.13;;;32.85;;
32393;SDS011;18853;45.426;9.206;2024-02-15T07:24:36;47.92;;;32.45;;
32393;SDS011;18853;45.426;9.206;2024-02-15T07:27:03;47.80;;;33.33;;
32393;SDS011;18853;45.426;9.206;2024-02-15T07:29:30;46.75;;;33.95;;
32393;SDS011;18853;45.426;9.206;2024-02-15T07:31:57;51.63;;;35.13;;
32393;SDS011;18853;45.426;9.206;2024-02-15T07:34:24;148.27;;;89.70;;
32393;SDS011;18853;45.426;9.206;2024-02-15T07:36:51;64.55;;;43.40;;
32393;SDS011;18853;45.426;9.206;2024-02-15T07:39:17;54.47;;;37.80;;
32393;SDS011;18853;45.426;9.206;2024-02-15T07:41:49;58.42;;;39.30;;
32393;SDS011;18853;45.426;9.206;2024-02-15T07:44:18;53.38;;;36.05;;
32393;SDS011;18853;45.426;9.206;2024-02-15T07:46:43;47.30;;;33.63;;
32393;SDS011;18853;45.426;9.206;2024-02-15T07:49:10;78.05;;;50.17;;
32393;SDS011;18853;45.426;9.206;2024-02-15T07:51:36;50.13;;;35.08;;
32393;SDS011;18853;45.426;9.206;2024-02-15T07:54:02;76.55;;;47.85;;
32393;SDS011;18853;45.426;9.206;2024-02-15T07:56:28;70.43;;;48.08;;
32393;SDS011;18853;45.426;9.206;2024-02-15T07:58:54;49.95;;;35.17;;
32393;SDS011;18853;45.426;9.206;2024-02-15T08:01:19;49.67;;;33.50;;
32393;SDS011;18853;45.426;9.206;2024-02-15T08:03:48;46.40;;;33.05;;
32393;SDS011;18853;45.426;9.206;2024-02-15T08:06:14;45.13;;;33.15;;
32393;SDS011;18853;45.426;9.206;2024-02-15T08:08:43;43.67;;;32.60;;
32393;SDS011;18853;45.426;9.206;2024-02-15T08:11:13;62.15;;;41.83;;
32393;SDS011;18853;45.426;9.206;2024-02-15T08:13:49;47.58;;;35.25;;
32393;SDS011;18853;45.426;9.206;2024-02-15T08:16:19;44.40;;;32.70;;
32393;SDS011;18853;45.426;9.206;2024-02-15T08:18:48;48.63;;;34.60;;
32393;SDS011;18853;45.426;9.206;2024-02-15T08:21:16;57.08;;;40.38;;
32393;SDS011;18853;45.426;9.206;2024-02-15T08:23:42;60.08;;;41.47;;
32393;SDS011;18853;45.426;9.206;2024-02-15T08:26:08;62.72;;;41.25;;
32393;SDS011;18853;45.426;9.206;2024-02-15T08:28:36;59.75;;;41.45;;
32393;SDS011;18853;45.426;9.206;2024-02-15T08:31:01;56.78;;;38.92;;
32393;SDS011;18853;45.426;9.206;2024-02-15T08:33:28;62.53;;;43.05;;
32393;SDS011;18853;45.426;9.206;2024-02-15T08:35:55;61.80;;;43.08;;
32393;SDS011;18853;45.426;9.206;2024-02-15T08:38:23;67.53;;;45.05;;
32393;SDS011;18853;45.426;9.206;2024-02-15T08:40:49;61.78;;;42.17;;
32393;SDS011;18853;45.426;9.206;2024-02-15T08:43:15;54.83;;;36.65;;
32393;SDS011;18853;45.426;9.206;2024-02-15T08:45:41;49.78;;;36.53;;
32393;SDS011;18853;45.426;9.206;2024-02-15T08:48:08;50.85;;;37.05;;
32393;SDS011;18853;45.426;9.206;2024-02-15T08:50:34;53.67;;;38.08;;
32393;SDS011;18853;45.426;9.206;2024-02-15T08:52:59;56.03;;;37.58;;
32393;SDS011;18853;45.426;9.206;2024-02-15T08:55:26;55.42;;;39.28;;
32393;SDS011;18853;45.426;9.206;2024-02-15T08:57:53;49.85;;;36.90;;
32393;SDS011;18853;45.426;9.206;2024-02-15T09:00:19;57.78;;;37.45;;
32393;SDS011;18853;45.426;9.206;2024-02-15T09:02:45;57.78;;;40.83;;
32393;SDS011;18853;45.426;9.206;2024-02-15T09:05:11;60.97;;;41.08;;
32393;SDS011;18853;45.426;9.206;2024-02-15T09:07:39;58.92;;;42.08;;
32393;SDS011;18853;45.426;9.206;2024-02-15T09:10:07;59.13;;;38.95;;
32393;SDS011;18853;45.426;9.206;2024-02-15T09:12:37;50.38;;;37.65;;
32393;SDS011;18853;45.426;9.206;2024-02-15T09:15:05;153.27;;;109.65;;
32393;SDS011;18853;45.426;9.206;2024-02-15T09:17:32;177.82;;;119.78;;
32393;SDS011;18853;45.426;9.206;2024-02-15T09:20:02;82.57;;;56.88;;
32393;SDS011;18853;45.426;9.206;2024-02-15T09:22:28;126.28;;;87.65;;
32393;SDS011;18853;45.426;9.206;2024-02-15T09:24:53;132.05;;;89.20;;
32393;SDS011;18853;45.426;9.206;2024-02-15T09:27:19;57.10;;;42.28;;
32393;SDS011;18853;45.426;9.206;2024-02-15T09:29:46;86.55;;;62.33;;
32393;SDS011;18853;45.426;9.206;2024-02-15T09:32:11;79.32;;;55.40;;
32393;SDS011;18853;45.426;9.206;2024-02-15T09:34:38;71.13;;;47.85;;
32393;SDS011;18853;45.426;9.206;2024-02-15T09:37:03;73.00;;;49.03;;
32393;SDS011;18853;45.426;9.206;2024-02-15T09:39:30;66.65;;;47.55;;
32393;SDS011;18853;45.426;9.206;2024-02-15T09:41:55;63.38;;;43.92;;
32393;SDS011;18853;45.426;9.206;2024-02-15T09:44:23;68.25;;;46.47;;
32393;SDS011;18853;45.426;9.206;2024-02-15T09:47:25;62.90;;;42.58;;
32393;SDS011;18853;45.426;9.206;2024-02-15T09:49:44;53.88;;;41.28;;
32393;SDS011;18853;45.426;9.206;2024-02-15T09:52:10;65.13;;;45.70;;
32393;SDS011;18853;45.426;9.206;2024-02-15T09:54:38;55.55;;;42.50;;
32393;SDS011;18853;45.426;9.206;2024-02-15T09:57:08;69.70;;;48.75;;
32393;SDS011;18853;45.426;9.206;2024-02-15T09:59:37;62.78;;;45.20;;
32393;SDS011;18853;45.426;9.206;2024-02-15T10:02:03;64.28;;;44.35;;
32393;SDS011;18853;45.426;9.206;2024-02-15T10:04:34;59.67;;;44.80;;
32393;SDS011;18853;45.426;9.206;2024-02-15T10:07:00;64.18;;;45.50;;
32393;SDS011;18853;45.426;9.206;2024-02-15T10:09:26;62.35;;;46.53;;
32393;SDS011;18853;45.426;9.206;2024-02-15T10:11:53;59.35;;;44.10;;
32393;SDS011;18853;45.426;9.206;2024-02-15T10:14:21;57.42;;;42.47;;
32393;SDS011;18853;45.426;9.206;2024-02-15T10:16:46;55.40;;;42.85;;
32393;SDS011;18853;45.426;9.206;2024-02-15T10:19:12;63.97;;;45.63;;
32393;SDS011;18853;45.426;9.206;2024-02-15T10:21:40;65.05;;;46.15;;
32393;SDS011;18853;45.426;9.206;2024-02-15T10:24:06;60.22;;;44.05;;
32393;SDS011;18853;45.426;9.206;2024-02-15T10:26:34;60.45;;;44.72;;
32393;SDS011;18853;45.426;9.206;2024-02-15T10:29:10;62.10;;;45.88;;
32393;SDS011;18853;45.426;9.206;2024-02-15T10:31:39;56.45;;;43.05;;
32393;SDS011;18853;45.426;9.206;2024-02-15T10:34:17;62.78;;;43.47;;
32393;SDS011;18853;45.426;9.206;2024-02-15T10:36:46;59.92;;;42.97;;
32393;SDS011;18853;45.426;9.206;2024-02-15T10:39:14;57.33;;;43.10;;
32393;SDS011;18853;45.426;9.206;2024-02-15T10:41:47;54.15;;;42.65;;
32393;SDS011;18853;45.426;9.206;2024-02-15T10:44:19;55.47;;;43.15;;
32393;SDS011;18853;45.426;9.206;2024-02-15T10:46:46;61.25;;;45.38;;
32393;SDS011;18853;45.426;9.206;2024-02-15T10:49:22;55.40;;;42.03;;
32393;SDS011;18853;45.426;9.206;2024-02-15T10:51:55;57.03;;;42.90;;
32393;SDS011;18853;45.426;9.206;2024-02-15T10:54:32;58.75;;;42.97;;
32393;SDS011;18853;45.426;9.206;2024-02-15T10:57:06;59.00;;;41.55;;
32393;SDS011;18853;45.426;9.206;2024-02-15T10:59:35;55.17;;;43.03;;
32393;SDS011;18853;45.426;9.206;2024-02-15T11:02:03;53.92;;;40.60;;
32393;SDS011;18853;45.426;9.206;2024-02-15T11:04:48;58.88;;;42.80;;
32393;SDS011;18853;45.426;9.206;2024-02-15T11:07:21;57.80;;;43.00;;
32393;SDS011;18853;45.426;9.206;2024-02-15T11:09:49;55.25;;;42.33;;
32393;SDS011;18853;45.426;9.206;2024-02-15T11:12:16;55.15;;;42.53;;
32393;SDS011;18853;45.426;9.206;2024-02-15T11:14:44;54.13;;;42.30;;
32393;SDS011;18853;45.426;9.206;2024-02-15T11:17:09;56.08;;;45.05;;
32393;SDS011;18853;45.426;9.206;2024-02-15T11:22:12;60.30;;;45.42;;
32393;SDS011;18853;45.426;9.206;2024-02-15T11:24:51;111.05;;;77.10;;
32393;SDS011;18853;45.426;9.206;2024-02-15T11:29:54;55.03;;;41.50;;
32393;SDS011;18853;45.426;9.206;2024-02-15T11:32:35;55.15;;;41.47;;
32393;SDS011;18853;45.426;9.206;2024-02-15T11:35:17;54.97;;;39.38;;
32393;SDS011;18853;45.426;9.206;2024-02-15T11:43:06;55.15;;;43.40;;
32393;SDS011;18853;45.426;9.206;2024-02-15T11:45:33;54.10;;;42.25;;
32393;SDS011;18853;45.426;9.206;2024-02-15T11:48:03;52.67;;;41.03;;
32393;SDS011;18853;45.426;9.206;2024-02-15T11:50:35;55.45;;;40.53;;
32393;SDS011;18853;45.426;9.206;2024-02-15T11:53:02;55.67;;;41.03;;
32393;SDS011;18853;45.426;9.206;2024-02-15T11:55:36;52.70;;;41.50;;
32393;SDS011;18853;45.426;9.206;2024-02-15T11:58:03;55.30;;;41.08;;
32393;SDS011;18853;45.426;9.206;2024-02-15T12:00:35;53.55;;;39.33;;
32393;SDS011;18853;45.426;9.206;2024-02-15T12:03:21;52.95;;;40.03;;
32393;SDS011;18853;45.426;9.206;2024-02-15T12:06:06;56.65;;;39.35;;
32393;SDS011;18853;45.426;9.206;2024-02-15T12:08:52;56.05;;;40.17;;
32393;SDS011;18853;45.426;9.206;2024-02-15T12:14:21;59.97;;;41.50;;
32393;SDS011;18853;45.426;9.206;2024-02-15T12:17:09;53.78;;;41.65;;
32393;SDS011;18853;45.426;9.206;2024-02-15T12:19:59;58.13;;;42.75;;
32393;SDS011;18853;45.426;9.206;2024-02-15T12:22:36;58.72;;;42.03;;
32393;SDS011;18853;45.426;9.206;2024-02-15T12:25:07;55.20;;;42.20;;
32393;SDS011;18853;45.426;9.206;2024-02-15T12:27:39;55.80;;;41.45;;
32393;SDS011;18853;45.426;9.206;2024-02-15T12:30:17;54.10;;;39.90;;
32393;SDS011;18853;45.426;9.206;2024-02-15T12:32:46;58.13;;;41.13;;
32393;SDS011;18853;45.426;9.206;2024-02-15T12:35:16;56.17;;;40.90;;
32393;SDS011;18853;45.426;9.206;2024-02-15T12:37:49;57.55;;;41.28;;
32393;SDS011;18853;45.426;9.206;2024-02-15T12:40:30;54.80;;;39.28;;
32393;SDS011;18853;45.426;9.206;2024-02-15T12:42:56;56.22;;;40.80;;
32393;SDS011;18853;45.426;9.206;2024-02-15T12:45:24;59.95;;;41.70;;
32393;SDS011;18853;45.426;9.206;2024-02-15T12:47:53;59.65;;;41.60;;
32393;SDS011;18853;45.426;9.206;2024-02-15T12:50:22;60.13;;;41.95;;
32393;SDS011;18853;45.426;9.206;2024-02-15T12:52:53;58.55;;;41.45;;
32393;SDS011;18853;45.426;9.206;2024-02-15T12:55:28;56.72;;;39.90;;
32393;SDS011;18853;45.426;9.206;2024-02-15T12:58:00;56.65;;;41.60;;
32393;SDS011;18853;45.426;9.206;2024-02-15T13:00:29;59.50;;;41.80;;
32393;SDS011;18853;45.426;9.206;2024-02-15T13:03:04;57.50;;;42.25;;
32393;SDS011;18853;45.426;9.206;2024-02-15T13:05:34;58.83;;;42.28;;
32393;SDS011;18853;45.426;9.206;2024-02-15T13:08:03;58.10;;;39.72;;
32393;SDS011;18853;45.426;9.206;2024-02-15T13:10:35;58.45;;;41.55;;
32393;SDS011;18853;45.426;9.206;2024-02-15T13:13:04;59.53;;;41.90;;
32393;SDS011;18853;45.426;9.206;2024-02-15T13:15:30;58.42;;;42.08;;
32393;SDS011;18853;45.426;9.206;2024-02-15T13:18:00;55.13;;;40.42;;
32393;SDS011;18853;45.426;9.206;2024-02-15T13:20:29;59.20;;;42.42;;
32393;SDS011;18853;45.426;9.206;2024-02-15T13:22:57;60.95;;;43.55;;
32393;SDS011;18853;45.426;9.206;2024-02-15T13:25:27;60.15;;;43.17;;
32393;SDS011;18853;45.426;9.206;2024-02-15T13:27:53;57.17;;;42.90;;
32393;SDS011;18853;45.426;9.206;2024-02-15T13:30:19;56.58;;;41.70;;
32393;SDS011;18853;45.426;9.206;2024-02-15T13:32:48;58.88;;;42.05;;
32393;SDS011;18853;45.426;9.206;2024-02-15T13:35:17;60.47;;;43.42;;
32393;SDS011;18853;45.426;9.206;2024-02-15T13:37:51;60.72;;;42.95;;
32393;SDS011;18853;45.426;9.206;2024-02-15T13:40:18;55.22;;;42.42;;
32393;SDS011;18853;45.426;9.206;2024-02-15T13:42:48;59.40;;;42.28;;
32393;SDS011;18853;45.426;9.206;2024-02-15T13:45:21;61.33;;;42.85;;
32393;SDS011;18853;45.426;9.206;2024-02-15T13:47:48;61.40;;;44.20;;
32393;SDS011;18853;45.426;9.206;2024-02-15T13:50:14;59.80;;;42.75;;
32393;SDS011;18853;45.426;9.206;2024-02-15T13:52:40;60.78;;;43.72;;
32393;SDS011;18853;45.426;9.206;2024-02-15T13:55:10;59.70;;;43.78;;
32393;SDS011;18853;45.426;9.206;2024-02-15T13:57:37;54.75;;;40.63;;
32393;SDS011;18853;45.426;9.206;2024-02-15T14:00:04;62.15;;;43.40;;
32393;SDS011;18853;45.426;9.206;2024-02-15T14:02:31;51.22;;;39.78;;
32393;SDS011;18853;45.426;9.206;2024-02-15T14:04:56;58.28;;;42.25;;
32393;SDS011;18853;45.426;9.206;2024-02-15T14:07:22;55.00;;;39.97;;
32393;SDS011;18853;45.426;9.206;2024-02-15T14:09:47;55.17;;;40.55;;
32393;SDS011;18853;45.426;9.206;2024-02-15T14:12:13;52.53;;;40.22;;
32393;SDS011;18853;45.426;9.206;2024-02-15T14:14:42;53.78;;;40.00;;
32393;SDS011;18853;45.426;9.206;2024-02-15T14:17:08;49.10;;;39.08;;
32393;SDS011;18853;45.426;9.206;2024-02-15T14:19:34;54.80;;;40.40;;
32393;SDS011;18853;45.426;9.206;2024-02-15T14:21:59;51.90;;;39.17;;
32393;SDS011;18853;45.426;9.206;2024-02-15T14:24:26;56.95;;;39.90;;
32393;SDS011;18853;45.426;9.206;2024-02-15T14:26:52;50.05;;;39.08;;
32393;SDS011;18853;45.426;9.206;2024-02-15T14:29:17;52.55;;;38.97;;
32393;SDS011;18853;45.426;9.206;2024-02-15T14:31:47;51.92;;;37.85;;
32393;SDS011;18853;45.426;9.206;2024-02-15T14:34:36;54.17;;;39.92;;
32393;SDS011;18853;45.426;9.206;2024-02-15T14:37:02;54.78;;;40.65;;
32393;SDS011;18853;45.426;9.206;2024-02-15T14:39:31;55.58;;;40.55;;
32393;SDS011;18853;45.426;9.206;2024-02-15T14:41:56;52.33;;;39.28;;